createdAt,value
2018-06-12T00:00:24.998Z,6.15
2018-06-12T00:00:58.270Z,6.28
2018-06-12T00:01:31.511Z,6.15
2018-06-12T00:02:04.802Z,5.78
2018-06-12T00:02:38.048Z,6.08
2018-06-12T00:03:11.301Z,5.87
2018-06-12T00:03:44.561Z,5.58
2018-06-12T00:04:17.848Z,5.50
2018-06-12T00:04:51.134Z,5.70
2018-06-12T00:05:24.455Z,5.67
2018-06-12T00:05:57.793Z,5.90
2018-06-12T00:06:31.080Z,6.12
2018-06-12T00:07:04.345Z,5.90
2018-06-12T00:07:37.596Z,5.95
2018-06-12T00:08:10.903Z,5.70
2018-06-12T00:08:44.186Z,6.22
2018-06-12T00:09:17.450Z,6.20
2018-06-12T00:09:50.708Z,5.75
2018-06-12T00:10:24.034Z,5.97
2018-06-12T00:10:57.286Z,6.05
2018-06-12T00:11:30.550Z,5.95
2018-06-12T00:12:03.896Z,5.78
2018-06-12T00:12:37.157Z,5.85
2018-06-12T00:13:10.432Z,5.67
2018-06-12T00:13:43.685Z,5.95
2018-06-12T00:14:16.990Z,5.72
2018-06-12T00:14:50.433Z,5.78
2018-06-12T00:15:23.662Z,5.90
2018-06-12T00:15:56.931Z,6.58
2018-06-12T00:16:30.181Z,5.72
2018-06-12T00:17:03.547Z,6.05
2018-06-12T00:17:36.773Z,6.53
2018-06-12T00:18:10.069Z,6.30
2018-06-12T00:18:43.281Z,5.80
2018-06-12T00:19:16.501Z,5.62
2018-06-12T00:19:49.769Z,5.53
2018-06-12T00:20:23.048Z,5.65
2018-06-12T00:20:56.332Z,5.50
2018-06-12T00:21:29.565Z,6.12
2018-06-12T00:22:02.869Z,5.92
2018-06-12T00:22:36.152Z,5.62
2018-06-12T00:23:09.383Z,5.90
2018-06-12T00:23:42.636Z,5.97
2018-06-12T00:24:15.865Z,5.00
2018-06-12T00:24:49.089Z,6.03
2018-06-12T00:25:22.367Z,5.53
2018-06-12T00:25:55.646Z,5.65
2018-06-12T00:26:28.894Z,5.67
2018-06-12T00:27:02.133Z,5.70
2018-06-12T00:27:35.386Z,5.70
2018-06-12T00:28:08.628Z,5.50
2018-06-12T00:28:41.846Z,5.60
2018-06-12T00:29:15.150Z,5.78
2018-06-12T00:29:48.391Z,5.20
2018-06-12T00:30:21.634Z,5.90
2018-06-12T00:30:54.878Z,5.08
2018-06-12T00:31:28.120Z,5.92
2018-06-12T00:32:01.387Z,5.07
2018-06-12T00:32:34.645Z,4.95
2018-06-12T00:33:07.869Z,5.35
2018-06-12T00:33:41.105Z,4.97
2018-06-12T00:34:14.372Z,5.37
2018-06-12T00:34:47.637Z,5.47
2018-06-12T00:35:20.894Z,5.10
2018-06-12T00:35:54.139Z,4.70
2018-06-12T00:36:27.424Z,5.03
2018-06-12T00:37:00.684Z,4.67
2018-06-12T00:37:33.917Z,4.97
2018-06-12T00:38:07.189Z,5.03
2018-06-12T00:38:40.438Z,4.95
2018-06-12T00:39:13.714Z,5.37
2018-06-12T00:39:47.036Z,4.97
2018-06-12T00:40:20.312Z,4.60
2018-06-12T00:40:53.553Z,4.92
2018-06-12T00:41:26.843Z,4.65
2018-06-12T00:42:00.179Z,5.08
2018-06-12T00:42:33.444Z,5.10
2018-06-12T00:43:06.689Z,5.17
2018-06-12T00:43:39.943Z,5.03
2018-06-12T00:44:13.179Z,5.20
2018-06-12T00:44:46.387Z,4.70
2018-06-12T00:45:19.598Z,5.05
2018-06-12T00:45:52.839Z,5.15
2018-06-12T00:46:26.104Z,4.85
2018-06-12T00:46:59.361Z,5.40
2018-06-12T00:47:32.592Z,5.17
2018-06-12T00:48:05.877Z,5.08
2018-06-12T00:48:39.129Z,5.05
2018-06-12T00:49:12.379Z,5.17
2018-06-12T00:49:45.611Z,4.53
2018-06-12T00:50:18.936Z,4.45
2018-06-12T00:50:52.199Z,4.87
2018-06-12T00:51:25.429Z,4.37
2018-06-12T00:51:58.717Z,4.70
2018-06-12T00:52:31.925Z,4.70
2018-06-12T00:53:05.187Z,4.50
2018-06-12T00:53:38.447Z,5.05
2018-06-12T00:54:11.633Z,5.42
2018-06-12T00:54:44.867Z,4.83
2018-06-12T00:55:18.147Z,4.72
2018-06-12T00:55:51.361Z,5.12
2018-06-12T00:56:41.887Z,4.78
2018-06-12T00:57:15.103Z,5.10
2018-06-12T00:57:48.365Z,5.45
2018-06-12T00:58:21.667Z,4.90
2018-06-12T00:58:55.017Z,5.12
2018-06-12T00:59:28.264Z,4.60
2018-06-12T01:00:01.542Z,4.60
2018-06-12T01:00:34.874Z,5.17
2018-06-12T01:01:08.167Z,4.75
2018-06-12T01:01:41.454Z,4.47
2018-06-12T01:02:14.713Z,5.15
2018-06-12T01:02:47.949Z,5.10
2018-06-12T01:03:21.199Z,5.70
2018-06-12T01:03:54.491Z,4.92
2018-06-12T01:04:27.758Z,5.05
2018-06-12T01:05:01.079Z,5.03
2018-06-12T01:05:34.319Z,5.70
2018-06-12T01:06:07.607Z,4.97
2018-06-12T01:06:40.879Z,5.37
2018-06-12T01:07:14.151Z,5.58
2018-06-12T01:07:47.469Z,5.37
2018-06-12T01:08:20.711Z,5.22
2018-06-12T01:08:54.022Z,4.90
2018-06-12T01:09:27.293Z,4.80
2018-06-12T01:10:00.587Z,5.08
2018-06-12T01:10:33.817Z,5.10
2018-06-12T01:11:07.083Z,5.17
2018-06-12T01:11:40.336Z,5.05
2018-06-12T01:12:13.627Z,5.10
2018-06-12T01:12:46.906Z,5.58
2018-06-12T01:13:20.191Z,5.10
2018-06-12T01:13:53.443Z,5.47
2018-06-12T01:14:26.734Z,5.50
2018-06-12T01:15:00.377Z,5.60
2018-06-12T01:15:33.671Z,5.28
2018-06-12T01:16:06.933Z,5.15
2018-06-12T01:16:40.271Z,4.97
2018-06-12T01:17:13.537Z,5.70
2018-06-12T01:17:46.799Z,5.67
2018-06-12T01:18:20.082Z,5.25
2018-06-12T01:18:53.321Z,5.33
2018-06-12T01:19:26.631Z,5.70
2018-06-12T01:19:59.879Z,5.42
2018-06-12T01:20:33.125Z,5.60
2018-06-12T01:21:06.360Z,5.78
2018-06-12T01:21:39.629Z,5.70
2018-06-12T01:22:12.926Z,5.70
2018-06-12T01:22:46.229Z,4.97
2018-06-12T01:23:20.173Z,5.33
2018-06-12T01:23:53.404Z,6.25
2018-06-12T01:24:26.637Z,6.28
2018-06-12T01:24:59.943Z,5.55
2018-06-12T01:25:33.193Z,6.35
2018-06-12T01:26:06.411Z,6.17
2018-06-12T01:26:39.642Z,5.45
2018-06-12T01:27:12.871Z,6.47
2018-06-12T01:27:46.063Z,6.47
2018-06-12T01:28:19.305Z,6.42
2018-06-12T01:28:52.552Z,6.10
2018-06-12T01:29:25.809Z,6.50
2018-06-12T01:29:59.025Z,5.72
2018-06-12T01:30:32.291Z,6.65
2018-06-12T01:31:05.572Z,6.70
2018-06-12T01:31:38.821Z,6.40
2018-06-12T01:32:12.088Z,6.90
2018-06-12T01:32:45.374Z,5.85
2018-06-12T01:33:18.569Z,6.72
2018-06-12T01:33:51.772Z,6.15
2018-06-12T01:34:25.022Z,5.78
2018-06-12T01:34:58.292Z,6.10
2018-06-12T01:35:31.595Z,6.45
2018-06-12T01:36:04.835Z,6.10
2018-06-12T01:36:38.121Z,5.70
2018-06-12T01:37:11.405Z,6.65
2018-06-12T01:37:44.679Z,5.67
2018-06-12T01:38:17.909Z,5.90
2018-06-12T01:38:51.176Z,6.22
2018-06-12T01:39:24.411Z,5.95
2018-06-12T01:39:57.657Z,6.30
2018-06-12T01:40:30.919Z,6.47
2018-06-12T01:41:04.222Z,5.75
2018-06-12T01:41:37.461Z,6.45
2018-06-12T01:42:10.731Z,6.28
2018-06-12T01:42:43.990Z,6.55
2018-06-12T01:43:17.246Z,5.95
2018-06-12T01:43:50.481Z,5.42
2018-06-12T01:44:23.711Z,5.85
2018-06-12T01:44:56.985Z,5.40
2018-06-12T01:45:30.229Z,6.15
2018-06-12T01:46:03.475Z,5.62
2018-06-12T01:46:36.800Z,5.72
2018-06-12T01:47:10.001Z,5.50
2018-06-12T01:47:43.281Z,6.00
2018-06-12T01:48:16.522Z,5.50
2018-06-12T01:48:49.811Z,5.10
2018-06-12T01:49:23.042Z,5.37
2018-06-12T01:49:56.309Z,5.35
2018-06-12T01:50:29.547Z,5.70
2018-06-12T01:51:02.822Z,5.55
2018-06-12T01:51:36.137Z,5.33
2018-06-12T01:52:09.379Z,5.08
2018-06-12T01:52:42.783Z,5.50
2018-06-12T01:53:16.049Z,5.72
2018-06-12T01:53:49.288Z,5.97
2018-06-12T01:54:22.538Z,5.55
2018-06-12T01:54:55.812Z,5.65
2018-06-12T01:55:29.090Z,5.22
2018-06-12T01:56:02.348Z,5.67
2018-06-12T01:56:35.564Z,4.90
2018-06-12T01:57:08.817Z,4.95
2018-06-12T01:57:42.104Z,5.92
2018-06-12T01:58:15.349Z,4.87
2018-06-12T01:58:48.573Z,5.08
2018-06-12T01:59:21.805Z,5.60
2018-06-12T01:59:55.052Z,5.40
2018-06-12T02:00:28.337Z,5.15
2018-06-12T02:01:01.595Z,5.25
2018-06-12T02:01:34.858Z,4.72
2018-06-12T02:02:08.110Z,4.75
2018-06-12T02:02:41.946Z,4.53
2018-06-12T02:03:15.268Z,4.67
2018-06-12T02:03:48.527Z,4.30
2018-06-12T02:04:21.765Z,4.90
2018-06-12T02:04:55.020Z,4.50
2018-06-12T02:05:28.331Z,4.20
2018-06-12T02:06:01.586Z,4.55
2018-06-12T02:06:34.813Z,4.50
2018-06-12T02:07:08.068Z,4.30
2018-06-12T02:07:41.255Z,4.37
2018-06-12T02:08:14.484Z,4.10
2018-06-12T02:08:47.728Z,4.30
2018-06-12T02:09:20.967Z,4.17
2018-06-12T02:09:54.238Z,4.03
2018-06-12T02:10:27.480Z,4.55
2018-06-12T02:11:00.719Z,4.40
2018-06-12T02:11:33.989Z,5.53
2018-06-12T02:12:07.232Z,4.05
2018-06-12T02:12:40.534Z,4.65
2018-06-12T02:13:13.775Z,4.10
2018-06-12T02:13:47.006Z,4.40
2018-06-12T02:14:20.277Z,4.53
2018-06-12T02:14:53.494Z,4.70
2018-06-12T02:15:26.753Z,4.55
2018-06-12T02:16:00.000Z,4.62
2018-06-12T02:16:33.260Z,4.10
2018-06-12T02:17:06.577Z,4.10
2018-06-12T02:17:39.775Z,4.37
2018-06-12T02:18:13.061Z,4.50
2018-06-12T02:18:46.303Z,4.35
2018-06-12T02:19:19.560Z,4.42
2018-06-12T02:19:52.824Z,4.20
2018-06-12T02:20:26.460Z,4.65
2018-06-12T02:20:59.772Z,4.50
2018-06-12T02:21:33.032Z,4.47
2018-06-12T02:22:06.350Z,4.92
2018-06-12T02:22:39.601Z,5.00
2018-06-12T02:23:12.856Z,4.75
2018-06-12T02:23:46.071Z,5.00
2018-06-12T02:24:19.321Z,4.70
2018-06-12T02:24:52.617Z,5.07
2018-06-12T02:25:25.876Z,4.60
2018-06-12T02:25:59.106Z,4.92
2018-06-12T02:26:32.370Z,4.58
2018-06-12T02:27:05.635Z,4.83
2018-06-12T02:27:38.890Z,4.45
2018-06-12T02:28:12.111Z,4.78
2018-06-12T02:28:45.386Z,4.95
2018-06-12T02:29:18.605Z,4.78
2018-06-12T02:29:51.843Z,5.10
2018-06-12T02:30:25.094Z,4.55
2018-06-12T02:30:58.368Z,4.37
2018-06-12T02:31:31.664Z,4.83
2018-06-12T02:32:04.961Z,5.00
2018-06-12T02:32:38.222Z,4.33
2018-06-12T02:33:11.823Z,5.28
2018-06-12T02:33:45.074Z,4.78
2018-06-12T02:34:18.388Z,5.00
2018-06-12T02:34:51.605Z,4.65
2018-06-12T02:35:24.910Z,4.62
2018-06-12T02:35:58.161Z,4.75
2018-06-12T02:36:31.481Z,5.22
2018-06-12T02:37:04.763Z,4.85
2018-06-12T02:37:38.061Z,4.97
2018-06-12T02:38:11.347Z,5.60
2018-06-12T02:38:44.582Z,4.85
2018-06-12T02:39:17.812Z,4.90
2018-06-12T02:39:51.055Z,4.78
2018-06-12T02:40:24.314Z,4.95
2018-06-12T02:40:57.539Z,4.92
2018-06-12T02:41:30.803Z,5.33
2018-06-12T02:42:04.018Z,5.45
2018-06-12T02:42:37.281Z,5.17
2018-06-12T02:43:10.575Z,5.00
2018-06-12T02:43:43.805Z,5.17
2018-06-12T02:44:17.085Z,5.20
2018-06-12T02:44:50.332Z,5.08
2018-06-12T02:45:23.564Z,5.30
2018-06-12T02:45:56.842Z,5.08
2018-06-12T02:46:30.131Z,4.70
2018-06-12T02:47:03.483Z,5.58
2018-06-12T02:47:36.780Z,5.30
2018-06-12T02:48:10.040Z,4.85
2018-06-12T02:48:43.273Z,6.10
2018-06-12T02:49:16.503Z,4.87
2018-06-12T02:49:49.740Z,5.22
2018-06-12T02:50:22.991Z,5.62
2018-06-12T02:50:56.235Z,5.33
2018-06-12T02:51:29.525Z,5.25
2018-06-12T02:52:02.791Z,5.85
2018-06-12T02:52:36.011Z,6.17
2018-06-12T02:53:09.231Z,5.62
2018-06-12T02:53:42.458Z,5.42
2018-06-12T02:54:15.710Z,5.10
2018-06-12T02:54:49.007Z,5.05
2018-06-12T02:55:22.234Z,5.75
2018-06-12T02:55:55.455Z,5.75
2018-06-12T02:56:28.691Z,5.47
2018-06-12T03:06:51.957Z,6.40
2018-06-12T03:07:25.224Z,5.30
2018-06-12T03:07:58.526Z,6.17
2018-06-12T03:08:31.830Z,5.53
2018-06-12T03:09:08.195Z,6.15
2018-06-12T03:09:41.430Z,6.17
2018-06-12T03:10:14.660Z,5.30
2018-06-12T03:10:47.891Z,5.87
2018-06-12T03:11:21.137Z,5.53
2018-06-12T03:11:54.404Z,5.83
2018-06-12T03:12:27.635Z,5.97
2018-06-12T03:13:01.002Z,6.75
2018-06-12T03:13:34.327Z,5.62
2018-06-12T03:14:07.513Z,5.60
2018-06-12T03:14:40.767Z,5.75
2018-06-12T03:15:14.017Z,5.85
2018-06-12T03:15:47.299Z,5.97
2018-06-12T03:16:21.298Z,6.00
2018-06-12T03:16:54.549Z,6.20
2018-06-12T03:17:27.806Z,5.83
2018-06-12T03:18:01.081Z,6.00
2018-06-12T03:18:34.325Z,6.00
2018-06-12T03:19:07.551Z,5.17
2018-06-12T03:19:40.829Z,5.80
2018-06-12T03:20:14.079Z,5.80
2018-06-12T03:20:47.365Z,5.85
2018-06-12T03:21:20.585Z,5.90
2018-06-12T03:21:53.852Z,5.37
2018-06-12T03:22:27.165Z,4.92
2018-06-12T03:23:00.401Z,5.47
2018-06-12T03:23:33.687Z,5.67
2018-06-12T03:24:07.211Z,5.65
2018-06-12T03:24:40.447Z,5.22
2018-06-12T03:25:13.669Z,5.40
2018-06-12T03:25:57.507Z,5.58
2018-06-12T03:26:30.741Z,4.72
2018-06-12T03:27:03.993Z,5.45
2018-06-12T03:27:37.255Z,5.12
2018-06-12T03:28:10.461Z,5.00
2018-06-12T03:28:43.733Z,5.17
2018-06-12T03:29:16.972Z,5.10
2018-06-12T03:29:50.205Z,4.78
2018-06-12T03:30:23.469Z,4.67
2018-06-12T03:30:56.721Z,4.50
2018-06-12T03:31:29.964Z,4.75
2018-06-12T03:32:03.205Z,4.45
2018-06-12T03:32:36.486Z,4.60
2018-06-12T03:33:09.730Z,4.20
2018-06-12T03:33:42.959Z,4.40
2018-06-12T03:34:16.202Z,4.75
2018-06-12T03:34:49.411Z,4.55
2018-06-12T03:35:22.644Z,4.37
2018-06-12T03:35:55.843Z,4.50
2018-06-12T03:36:29.133Z,3.95
2018-06-12T03:37:02.421Z,4.40
2018-06-12T03:37:35.685Z,4.35
2018-06-12T03:38:08.971Z,4.12
2018-06-12T03:38:42.301Z,3.98
2018-06-12T03:39:15.551Z,4.33
2018-06-12T03:39:48.793Z,4.42
2018-06-12T03:40:22.091Z,4.92
2018-06-12T03:40:55.345Z,4.58
2018-06-12T03:41:28.595Z,4.67
2018-06-12T03:42:01.870Z,5.05
2018-06-12T03:42:35.151Z,4.78
2018-06-12T03:43:08.516Z,5.37
2018-06-12T03:43:41.772Z,4.40
2018-06-12T03:44:15.063Z,4.65
2018-06-12T03:44:48.263Z,4.37
2018-06-12T03:45:21.535Z,4.55
2018-06-12T03:45:54.795Z,4.78
2018-06-12T03:46:28.058Z,4.35
2018-06-12T03:47:01.287Z,4.72
2018-06-12T03:47:34.581Z,5.15
2018-06-12T03:48:07.847Z,4.50
2018-06-12T03:48:41.117Z,4.95
2018-06-12T03:49:14.355Z,5.20
2018-06-12T03:49:47.603Z,4.97
2018-06-12T03:50:20.844Z,5.12
2018-06-12T03:50:54.175Z,5.10
2018-06-12T03:51:27.427Z,5.08
2018-06-12T03:52:00.721Z,5.10
2018-06-12T03:52:33.977Z,5.10
2018-06-12T03:53:07.235Z,5.08
2018-06-12T03:53:40.679Z,5.25
2018-06-12T03:54:13.919Z,4.83
2018-06-12T03:54:47.169Z,5.28
2018-06-12T03:55:20.419Z,5.00
2018-06-12T03:55:53.667Z,5.20
2018-06-12T03:56:26.905Z,4.75
2018-06-12T03:57:00.190Z,4.58
2018-06-12T03:57:33.473Z,5.17
2018-06-12T03:58:06.698Z,5.12
2018-06-12T03:58:39.959Z,5.60
2018-06-12T03:59:13.187Z,4.85
2018-06-12T03:59:46.435Z,4.83
2018-06-12T04:00:19.683Z,4.87
2018-06-12T04:00:52.929Z,5.70
2018-06-12T04:01:26.181Z,4.95
2018-06-12T04:01:59.452Z,4.53
2018-06-12T04:02:32.706Z,6.67
2018-06-12T04:03:05.933Z,4.90
2018-06-12T04:03:39.195Z,4.78
2018-06-12T04:04:12.430Z,5.55
2018-06-12T04:04:45.689Z,5.33
2018-06-12T04:05:18.954Z,5.33
2018-06-12T04:05:52.205Z,4.85
2018-06-12T04:06:25.457Z,5.53
2018-06-12T04:06:58.705Z,4.90
2018-06-12T04:07:32.012Z,5.33
2018-06-12T04:08:05.313Z,5.08
2018-06-12T04:08:38.639Z,5.08
2018-06-12T04:09:11.880Z,4.87
2018-06-12T04:09:45.121Z,5.65
2018-06-12T04:10:18.435Z,4.83
2018-06-12T04:10:51.665Z,4.85
2018-06-12T04:11:24.915Z,4.55
2018-06-12T04:11:58.135Z,5.00
2018-06-12T04:12:31.338Z,4.92
2018-06-12T04:13:04.635Z,5.50
2018-06-12T04:13:37.901Z,4.90
2018-06-12T04:14:11.147Z,5.15
2018-06-12T04:14:44.434Z,5.08
2018-06-12T04:15:17.671Z,4.87
2018-06-12T04:15:50.947Z,4.80
2018-06-12T04:16:24.177Z,5.20
2018-06-12T04:16:57.395Z,5.20
2018-06-12T04:17:30.655Z,4.50
2018-06-12T04:18:03.985Z,4.75
2018-06-12T04:18:37.281Z,4.72
2018-06-12T04:19:10.535Z,4.90
2018-06-12T04:19:43.763Z,4.97
2018-06-12T04:20:16.963Z,4.58
2018-06-12T04:20:50.203Z,4.65
2018-06-12T04:21:23.479Z,5.10
2018-06-12T04:21:56.753Z,4.85
2018-06-12T04:22:30.061Z,4.67
2018-06-12T04:23:03.353Z,4.95
2018-06-12T04:23:36.617Z,4.65
2018-06-12T04:24:09.877Z,4.87
2018-06-12T04:24:43.200Z,5.03
2018-06-12T04:25:16.453Z,5.17
2018-06-12T04:25:49.739Z,4.10
2018-06-12T04:26:23.007Z,5.33
2018-06-12T04:26:56.265Z,4.97
2018-06-12T04:27:29.529Z,5.55
2018-06-12T04:28:02.780Z,5.60
2018-06-12T04:28:36.075Z,5.20
2018-06-12T04:29:09.367Z,5.70
2018-06-12T04:29:42.625Z,5.35
2018-06-12T04:30:15.963Z,4.70
2018-06-12T04:30:49.205Z,4.55
2018-06-12T04:31:22.479Z,5.00
2018-06-12T04:31:55.787Z,4.67
2018-06-12T04:32:29.043Z,4.92
2018-06-12T04:33:02.309Z,6.30
2018-06-12T04:33:35.561Z,4.80
2018-06-12T04:34:08.851Z,4.97
2018-06-12T04:34:42.075Z,5.30
2018-06-12T04:35:15.335Z,4.80
2018-06-12T04:35:48.577Z,5.10
2018-06-12T04:36:21.885Z,5.30
2018-06-12T04:36:55.517Z,4.33
2018-06-12T04:37:28.793Z,6.45
2018-06-12T04:38:02.085Z,5.20
2018-06-12T04:38:35.312Z,4.72
2018-06-12T04:39:08.575Z,5.03
2018-06-12T04:39:41.855Z,5.12
2018-06-12T04:40:15.101Z,5.28
2018-06-12T04:40:48.365Z,4.90
2018-06-12T04:41:21.617Z,4.50
2018-06-12T04:41:54.863Z,4.58
2018-06-12T04:42:28.120Z,4.80
2018-06-12T04:43:01.569Z,4.67
2018-06-12T04:43:34.831Z,4.97
2018-06-12T04:44:08.025Z,5.37
2018-06-12T04:44:41.295Z,4.55
2018-06-12T04:45:14.561Z,5.00
2018-06-12T04:45:47.780Z,5.17
2018-06-12T04:46:21.007Z,4.75
2018-06-12T04:46:54.235Z,5.08
2018-06-12T04:47:27.508Z,4.70
2018-06-12T04:48:00.758Z,4.37
2018-06-12T04:48:34.024Z,4.30
2018-06-12T04:49:07.235Z,4.70
2018-06-12T04:49:40.483Z,4.47
2018-06-12T04:50:13.740Z,4.30
2018-06-12T04:50:47.028Z,4.80
2018-06-12T04:51:20.241Z,4.67
2018-06-12T04:51:53.518Z,4.10
2018-06-12T04:52:26.735Z,4.42
2018-06-12T04:52:59.966Z,4.70
2018-06-12T04:53:33.201Z,4.50
2018-06-12T04:54:06.484Z,4.53
2018-06-12T04:54:39.749Z,4.15
2018-06-12T04:55:13.072Z,4.20
2018-06-12T04:55:46.386Z,3.85
2018-06-12T04:56:19.623Z,4.35
2018-06-12T04:56:52.864Z,4.40
2018-06-12T04:57:26.135Z,3.95
2018-06-12T04:57:59.398Z,3.85
2018-06-12T04:58:32.671Z,3.80
2018-06-12T04:59:05.909Z,3.80
2018-06-12T04:59:39.143Z,3.77
2018-06-12T05:00:12.405Z,3.90
2018-06-12T05:00:45.657Z,3.90
2018-06-12T05:01:19.645Z,3.50
2018-06-12T05:01:58.063Z,3.92
2018-06-12T05:02:31.304Z,4.28
2018-06-12T05:03:04.561Z,3.60
2018-06-12T05:03:37.824Z,4.17
2018-06-12T05:04:11.056Z,4.12
2018-06-12T05:04:44.321Z,4.22
2018-06-12T05:05:17.705Z,3.90
2018-06-12T05:05:51.079Z,3.90
2018-06-12T05:06:24.320Z,4.17
2018-06-12T05:06:57.565Z,3.98
2018-06-12T05:07:30.793Z,4.10
2018-06-12T05:08:04.071Z,3.58
2018-06-12T05:08:37.303Z,3.77
2018-06-12T05:09:10.567Z,3.85
2018-06-12T05:09:43.809Z,3.77
2018-06-12T05:10:17.076Z,4.15
2018-06-12T05:10:50.331Z,4.20
2018-06-12T05:11:23.567Z,3.90
2018-06-12T05:11:56.793Z,3.92
2018-06-12T05:12:30.123Z,4.00
2018-06-12T05:13:03.433Z,3.58
2018-06-12T05:13:36.715Z,3.83
2018-06-12T05:14:10.005Z,3.52
2018-06-12T05:14:43.289Z,3.62
2018-06-12T05:15:16.536Z,3.70
2018-06-12T05:15:49.791Z,3.58
2018-06-12T05:16:23.057Z,3.72
2018-06-12T05:16:56.305Z,4.17
2018-06-12T05:17:29.580Z,3.72
2018-06-12T05:18:02.871Z,3.80
2018-06-12T05:18:36.131Z,3.83
2018-06-12T05:19:09.418Z,3.72
2018-06-12T05:19:42.728Z,3.70
2018-06-12T05:20:15.983Z,3.65
2018-06-12T05:20:49.247Z,3.95
2018-06-12T05:21:22.471Z,3.75
2018-06-12T05:21:55.717Z,4.28
2018-06-12T05:22:28.975Z,3.52
2018-06-12T05:23:02.265Z,3.87
2018-06-12T05:23:35.519Z,3.75
2018-06-12T05:24:08.808Z,3.62
2018-06-12T05:24:42.035Z,3.95
2018-06-12T05:25:15.271Z,4.35
2018-06-12T05:25:48.563Z,4.00
2018-06-12T05:26:21.809Z,4.15
2018-06-12T05:26:55.097Z,4.35
2018-06-12T05:27:28.413Z,4.28
2018-06-12T05:28:01.659Z,4.28
2018-06-12T05:28:34.886Z,4.12
2018-06-12T05:29:08.132Z,4.25
2018-06-12T05:29:41.359Z,4.60
2018-06-12T05:30:14.620Z,4.42
2018-06-12T05:30:47.879Z,3.85
2018-06-12T05:31:21.143Z,4.25
2018-06-12T05:31:54.441Z,3.80
2018-06-12T05:32:27.708Z,4.40
2018-06-12T05:33:00.997Z,4.10
2018-06-12T05:33:34.297Z,4.00
2018-06-12T05:34:07.627Z,4.05
2018-06-12T05:34:40.891Z,4.40
2018-06-12T05:35:14.197Z,4.20
2018-06-12T05:35:47.471Z,4.42
2018-06-12T05:36:20.783Z,4.75
2018-06-12T05:36:54.051Z,4.35
2018-06-12T05:37:27.353Z,4.42
2018-06-12T05:38:00.610Z,3.77
2018-06-12T05:38:33.873Z,4.35
2018-06-12T05:39:11.169Z,4.42
2018-06-12T05:39:44.435Z,4.17
2018-06-12T05:40:17.671Z,3.77
2018-06-12T05:40:50.929Z,3.85
2018-06-12T05:41:24.189Z,4.15
2018-06-12T05:41:57.511Z,4.50
2018-06-12T05:42:30.763Z,4.40
2018-06-12T05:43:04.059Z,4.33
2018-06-12T05:43:37.339Z,4.60
2018-06-12T05:44:10.585Z,4.53
2018-06-12T05:44:43.811Z,4.05
2018-06-12T05:45:17.055Z,4.15
2018-06-12T05:45:50.309Z,4.42
2018-06-12T05:46:23.647Z,4.30
2018-06-12T05:46:56.931Z,4.05
2018-06-12T05:47:30.205Z,3.87
2018-06-12T05:48:03.533Z,4.17
2018-06-12T05:48:36.796Z,4.40
2018-06-12T05:49:10.045Z,3.98
2018-06-12T05:49:43.300Z,4.10
2018-06-12T05:50:16.552Z,4.33
2018-06-12T05:50:49.827Z,4.58
2018-06-12T05:51:23.144Z,4.50
2018-06-12T05:51:56.484Z,4.47
2018-06-12T05:52:29.717Z,3.85
2018-06-12T05:53:02.991Z,4.37
2018-06-12T05:53:36.265Z,4.75
2018-06-12T05:54:09.517Z,4.03
2018-06-12T05:54:42.829Z,4.15
2018-06-12T05:55:16.074Z,4.47
2018-06-12T05:55:49.392Z,3.95
2018-06-12T05:56:22.651Z,4.58
2018-06-12T05:56:55.908Z,4.33
2018-06-12T05:57:29.155Z,4.30
2018-06-12T05:58:02.670Z,4.33
2018-06-12T05:58:35.871Z,4.47
2018-06-12T05:59:09.123Z,3.90
2018-06-12T05:59:42.342Z,4.30
2018-06-12T06:00:15.599Z,3.80
2018-06-12T06:00:48.821Z,4.10
2018-06-12T06:01:22.126Z,4.00
2018-06-12T06:01:55.297Z,3.60
2018-06-12T06:02:28.556Z,3.85
2018-06-12T06:03:01.804Z,3.75
2018-06-12T06:03:35.026Z,3.85
2018-06-12T06:04:08.261Z,4.40
2018-06-12T06:04:41.489Z,3.98
2018-06-12T06:05:14.717Z,4.10
2018-06-12T06:05:47.954Z,3.55
2018-06-12T06:06:21.233Z,3.72
2018-06-12T06:06:54.497Z,4.03
2018-06-12T06:07:27.733Z,3.92
2018-06-12T06:08:00.964Z,3.75
2018-06-12T06:08:34.173Z,4.10
2018-06-12T06:09:08.152Z,4.50
2018-06-12T06:09:41.402Z,4.00
2018-06-12T06:10:14.649Z,4.35
2018-06-12T06:10:47.920Z,3.58
2018-06-12T06:11:21.173Z,4.30
2018-06-12T06:11:54.423Z,4.23
2018-06-12T06:12:27.658Z,3.85
2018-06-12T06:13:00.936Z,4.00
2018-06-12T06:13:34.188Z,4.05
2018-06-12T06:14:07.455Z,3.90
2018-06-12T06:14:40.690Z,3.77
2018-06-12T06:15:13.977Z,4.00
2018-06-12T06:15:47.233Z,4.10
2018-06-12T06:16:20.486Z,3.75
2018-06-12T06:16:53.729Z,3.80
2018-06-12T06:17:26.958Z,3.95
2018-06-12T06:18:00.197Z,3.70
2018-06-12T06:18:33.422Z,3.55
2018-06-12T06:19:06.643Z,3.87
2018-06-12T06:19:39.882Z,3.75
2018-06-12T06:20:13.132Z,3.55
2018-06-12T06:20:46.358Z,3.80
2018-06-12T06:21:19.636Z,3.65
2018-06-12T06:21:52.885Z,3.72
2018-06-12T06:22:26.189Z,3.75
2018-06-12T06:22:59.420Z,3.70
2018-06-12T06:23:32.663Z,4.08
2018-06-12T06:24:05.912Z,3.90
2018-06-12T06:24:39.160Z,3.98
2018-06-12T06:25:12.484Z,3.87
2018-06-12T06:25:45.743Z,3.50
2018-06-12T06:26:19.032Z,4.03
2018-06-12T06:26:52.338Z,4.12
2018-06-12T06:27:25.561Z,3.83
2018-06-12T06:27:58.803Z,3.98
2018-06-12T06:28:32.053Z,4.08
2018-06-12T06:29:05.398Z,3.70
2018-06-12T06:29:38.674Z,3.58
2018-06-12T06:30:11.892Z,3.47
2018-06-12T06:30:45.147Z,3.85
2018-06-12T06:31:18.517Z,3.85
2018-06-12T06:31:51.758Z,3.50
2018-06-12T06:32:25.004Z,4.12
2018-06-12T06:32:58.265Z,3.67
2018-06-12T06:33:31.585Z,3.25
2018-06-12T06:34:04.887Z,4.08
2018-06-12T06:34:38.155Z,3.55
2018-06-12T06:35:11.412Z,3.98
2018-06-12T06:35:44.687Z,4.03
2018-06-12T06:36:17.927Z,3.62
2018-06-12T06:36:51.121Z,3.75
2018-06-12T06:37:24.446Z,3.52
2018-06-12T06:37:57.773Z,3.65
2018-06-12T06:38:31.059Z,3.47
2018-06-12T06:39:07.069Z,3.12
2018-06-12T06:39:40.329Z,3.55
2018-06-12T06:40:13.567Z,3.67
2018-06-12T06:40:46.828Z,3.83
2018-06-12T06:41:20.081Z,3.77
2018-06-12T06:41:53.373Z,3.42
2018-06-12T06:42:26.599Z,4.17
2018-06-12T06:42:59.830Z,3.70
2018-06-12T06:43:33.139Z,4.00
2018-06-12T06:44:06.464Z,4.03
2018-06-12T06:44:39.663Z,3.52
2018-06-12T06:45:12.947Z,4.03
2018-06-12T06:45:46.174Z,3.77
2018-06-12T06:46:19.414Z,3.40
2018-06-12T06:46:52.633Z,3.52
2018-06-12T06:47:25.935Z,3.90
2018-06-12T06:47:59.289Z,3.75
2018-06-12T06:48:32.539Z,4.12
2018-06-12T06:49:05.808Z,3.40
2018-06-12T06:49:39.043Z,3.70
2018-06-12T06:50:12.293Z,3.72
2018-06-12T06:50:45.525Z,3.50
2018-06-12T06:51:18.819Z,3.60
2018-06-12T06:51:52.040Z,3.20
2018-06-12T06:52:25.356Z,3.87
2018-06-12T06:52:58.577Z,3.87
2018-06-12T06:53:31.840Z,3.77
2018-06-12T06:54:05.107Z,3.50
2018-06-12T06:54:38.883Z,3.85
2018-06-12T06:55:12.095Z,3.70
2018-06-12T06:55:45.329Z,3.65
2018-06-12T06:56:18.539Z,3.98
2018-06-12T06:56:51.789Z,4.03
2018-06-12T06:57:25.017Z,3.90
2018-06-12T06:57:58.250Z,3.47
2018-06-12T06:58:31.469Z,3.70
2018-06-12T06:59:04.781Z,4.00
2018-06-12T06:59:38.047Z,3.95
2018-06-12T07:00:11.297Z,3.98
2018-06-12T07:00:44.595Z,4.05
2018-06-12T07:01:17.841Z,3.90
2018-06-12T07:01:51.049Z,3.80
2018-06-12T07:02:24.314Z,4.33
2018-06-12T07:02:57.631Z,4.10
2018-06-12T07:03:30.844Z,3.42
2018-06-12T07:04:04.137Z,4.12
2018-06-12T07:04:37.400Z,3.58
2018-06-12T07:05:10.649Z,3.65
2018-06-12T07:05:43.923Z,3.50
2018-06-12T07:06:17.239Z,4.17
2018-06-12T07:06:50.461Z,3.72
2018-06-12T07:07:23.819Z,4.17
2018-06-12T07:07:57.125Z,3.60
2018-06-12T07:08:30.400Z,3.30
2018-06-12T07:09:06.775Z,4.00
2018-06-12T07:09:39.980Z,3.42
2018-06-12T07:10:13.245Z,3.77
2018-06-12T07:10:46.471Z,3.35
2018-06-12T07:11:19.718Z,3.42
2018-06-12T07:11:52.975Z,3.25
2018-06-12T07:12:26.230Z,3.60
2018-06-12T07:12:59.492Z,3.45
2018-06-12T07:13:32.734Z,3.22
2018-06-12T07:14:05.993Z,3.50
2018-06-12T07:14:39.225Z,3.80
2018-06-12T07:15:12.468Z,3.45
2018-06-12T07:15:45.695Z,3.72
2018-06-12T07:16:19.030Z,3.83
2018-06-12T07:16:52.292Z,3.62
2018-06-12T07:17:25.592Z,3.25
2018-06-12T07:17:58.906Z,3.70
2018-06-12T07:18:32.138Z,3.62
2018-06-12T07:19:05.384Z,3.72
2018-06-12T07:19:38.714Z,3.58
2018-06-12T07:20:17.716Z,3.60
2018-06-12T07:21:06.201Z,4.45
2018-06-12T07:21:39.441Z,3.65
2018-06-12T07:22:12.704Z,3.35
2018-06-12T07:22:45.953Z,3.67
2018-06-12T07:23:19.200Z,3.52
2018-06-12T07:23:52.484Z,3.27
2018-06-12T07:24:25.778Z,3.40
2018-06-12T07:24:59.114Z,3.37
2018-06-12T07:25:32.404Z,3.77
2018-06-12T07:26:05.718Z,3.67
2018-06-12T07:26:39.006Z,3.47
2018-06-12T07:27:12.238Z,3.47
2018-06-12T07:27:45.572Z,3.50
2018-06-12T07:28:18.860Z,3.60
2018-06-12T07:28:52.095Z,3.40
2018-06-12T07:29:25.364Z,3.37
2018-06-12T07:29:58.648Z,3.92
2018-06-12T07:30:31.881Z,3.60
2018-06-12T07:31:05.106Z,3.67
2018-06-12T07:31:38.371Z,3.58
2018-06-12T07:32:11.650Z,3.67
2018-06-12T07:32:44.860Z,3.20
2018-06-12T07:33:18.436Z,3.77
2018-06-12T07:33:51.726Z,3.58